sensor_id;sensor_type;location;lat;lon;timestamp;temperature;humidity
36660;DHT22;22654;51.054;3.654;2023-02-15T00:01:09;1.80;99.90
36660;DHT22;22654;51.054;3.654;2023-02-15T00:03:35;1.80;99.90
36660;DHT22;22654;51.054;3.654;2023-02-15T00:06:01;1.70;99.90
36660;DHT22;22654;51.054;3.654;2023-02-15T00:08:27;1.70;99.90
36660;DHT22;22654;51.054;3.654;2023-02-15T00:10:52;1.70;99.90
36660;DHT22;22654;51.054;3.654;2023-02-15T00:13:18;1.80;99.90
36660;DHT22;22654;51.054;3.654;2023-02-15T00:15:44;1.90;99.90
36660;DHT22;22654;51.054;3.654;2023-02-15T00:18:09;1.80;99.90
36660;DHT22;22654;51.054;3.654;2023-02-15T00:20:35;1.70;99.90
36660;DHT22;22654;51.054;3.654;2023-02-15T00:23:01;1.70;99.90
36660;DHT22;22654;51.054;3.654;2023-02-15T00:25:26;1.60;99.90
36660;DHT22;22654;51.054;3.654;2023-02-15T00:27:52;1.80;99.90
36660;DHT22;22654;51.054;3.654;2023-02-15T00:30:18;1.90;99.90
36660;DHT22;22654;51.054;3.654;2023-02-15T00:32:44;1.80;99.90
36660;DHT22;22654;51.054;3.654;2023-02-15T00:35:10;1.60;99.90
36660;DHT22;22654;51.054;3.654;2023-02-15T00:37:36;1.50;99.90
36660;DHT22;22654;51.054;3.654;2023-02-15T00:40:02;1.40;99.90
36660;DHT22;22654;51.054;3.654;2023-02-15T00:42:29;1.60;99.90
36660;DHT22;22654;51.054;3.654;2023-02-15T00:44:55;1.60;99.90
36660;DHT22;22654;51.054;3.654;2023-02-15T00:47:20;2.10;99.90
36660;DHT22;22654;51.054;3.654;2023-02-15T00:49:46;2.20;99.90
36660;DHT22;22654;51.054;3.654;2023-02-15T00:52:12;2.30;99.90
36660;DHT22;22654;51.054;3.654;2023-02-15T00:54:38;2.30;99.90
36660;DHT22;22654;51.054;3.654;2023-02-15T00:57:04;2.10;99.90
36660;DHT22;22654;51.054;3.654;2023-02-15T00:59:30;1.80;99.90
36660;DHT22;22654;51.054;3.654;2023-02-15T01:01:55;1.70;99.90
36660;DHT22;22654;51.054;3.654;2023-02-15T01:04:21;1.70;99.90
36660;DHT22;22654;51.054;3.654;2023-02-15T01:06:47;1.80;99.90
36660;DHT22;22654;51.054;3.654;2023-02-15T01:09:13;1.70;99.90
36660;DHT22;22654;51.054;3.654;2023-02-15T01:11:39;1.80;99.90
36660;DHT22;22654;51.054;3.654;2023-02-15T01:14:04;1.80;99.90
36660;DHT22;22654;51.054;3.654;2023-02-15T01:16:30;1.90;99.90
36660;DHT22;22654;51.054;3.654;2023-02-15T01:18:58;1.90;99.90
36660;DHT22;22654;51.054;3.654;2023-02-15T01:21:24;1.90;99.90
36660;DHT22;22654;51.054;3.654;2023-02-15T01:23:50;1.70;99.90
36660;DHT22;22654;51.054;3.654;2023-02-15T01:26:17;1.60;99.90
36660;DHT22;22654;51.054;3.654;2023-02-15T01:28:43;1.50;99.90
36660;DHT22;22654;51.054;3.654;2023-02-15T01:31:10;1.30;99.90
36660;DHT22;22654;51.054;3.654;2023-02-15T01:33:36;1.20;99.90
36660;DHT22;22654;51.054;3.654;2023-02-15T01:36:02;1.40;99.90
36660;DHT22;22654;51.054;3.654;2023-02-15T01:38:28;1.50;99.90
36660;DHT22;22654;51.054;3.654;2023-02-15T01:40:54;1.40;99.90
36660;DHT22;22654;51.054;3.654;2023-02-15T01:43:51;1.30;99.90
36660;DHT22;22654;51.054;3.654;2023-02-15T01:46:19;1.20;99.90
36660;DHT22;22654;51.054;3.654;2023-02-15T01:48:48;1.10;99.90
36660;DHT22;22654;51.054;3.654;2023-02-15T01:51:16;1.00;99.90
36660;DHT22;22654;51.054;3.654;2023-02-15T01:53:48;1.00;99.90
36660;DHT22;22654;51.054;3.654;2023-02-15T01:56:17;1.00;99.90
36660;DHT22;22654;51.054;3.654;2023-02-15T01:58:48;1.20;99.90
36660;DHT22;22654;51.054;3.654;2023-02-15T02:01:16;1.70;99.90
36660;DHT22;22654;51.054;3.654;2023-02-15T02:03:46;1.60;99.90
36660;DHT22;22654;51.054;3.654;2023-02-15T02:06:15;1.30;99.90
36660;DHT22;22654;51.054;3.654;2023-02-15T02:08:41;1.20;99.90
36660;DHT22;22654;51.054;3.654;2023-02-15T02:11:12;1.10;99.90
36660;DHT22;22654;51.054;3.654;2023-02-15T02:13:39;1.00;99.90
36660;DHT22;22654;51.054;3.654;2023-02-15T02:16:09;1.00;99.90
36660;DHT22;22654;51.054;3.654;2023-02-15T02:24:03;1.10;99.90
36660;DHT22;22654;51.054;3.654;2023-02-15T02:26:51;1.00;99.90
36660;DHT22;22654;51.054;3.654;2023-02-15T02:34:51;1.00;99.90
36660;DHT22;22654;51.054;3.654;2023-02-15T02:45:01;0.60;99.90
36660;DHT22;22654;51.054;3.654;2023-02-15T02:48:12;0.60;99.90
36660;DHT22;22654;51.054;3.654;2023-02-15T02:50:21;0.50;99.90
36660;DHT22;22654;51.054;3.654;2023-02-15T02:52:48;0.50;99.90
36660;DHT22;22654;51.054;3.654;2023-02-15T02:55:21;0.40;99.90
36660;DHT22;22654;51.054;3.654;2023-02-15T03:00:18;0.40;99.90
36660;DHT22;22654;51.054;3.654;2023-02-15T03:02:44;0.30;99.90
36660;DHT22;22654;51.054;3.654;2023-02-15T03:05:13;0.30;99.90
36660;DHT22;22654;51.054;3.654;2023-02-15T03:07:40;0.30;99.90
36660;DHT22;22654;51.054;3.654;2023-02-15T03:10:06;0.30;99.90
36660;DHT22;22654;51.054;3.654;2023-02-15T03:12:36;0.50;99.90
36660;DHT22;22654;51.054;3.654;2023-02-15T03:17:32;0.80;99.90
36660;DHT22;22654;51.054;3.654;2023-02-15T03:20:01;0.90;99.90
36660;DHT22;22654;51.054;3.654;2023-02-15T03:22:38;0.80;99.90
36660;DHT22;22654;51.054;3.654;2023-02-15T03:25:20;0.70;99.90
36660;DHT22;22654;51.054;3.654;2023-02-15T03:27:49;0.70;99.90
36660;DHT22;22654;51.054;3.654;2023-02-15T03:30:16;0.70;99.90
36660;DHT22;22654;51.054;3.654;2023-02-15T03:32:43;0.80;99.90
36660;DHT22;22654;51.054;3.654;2023-02-15T03:35:10;0.60;99.90
36660;DHT22;22654;51.054;3.654;2023-02-15T03:40:03;0.70;99.90
36660;DHT22;22654;51.054;3.654;2023-02-15T03:43:01;0.70;99.90
36660;DHT22;22654;51.054;3.654;2023-02-15T03:45:31;0.50;99.90
36660;DHT22;22654;51.054;3.654;2023-02-15T03:47:57;0.30;99.90
36660;DHT22;22654;51.054;3.654;2023-02-15T03:50:27;0.20;99.90
36660;DHT22;22654;51.054;3.654;2023-02-15T03:53:14;0.10;99.90
36660;DHT22;22654;51.054;3.654;2023-02-15T03:55:40;0.10;99.90
36660;DHT22;22654;51.054;3.654;2023-02-15T03:58:06;0.10;99.90
36660;DHT22;22654;51.054;3.654;2023-02-15T04:01:00;0.10;99.90
36660;DHT22;22654;51.054;3.654;2023-02-15T04:04:04;0.10;99.90
36660;DHT22;22654;51.054;3.654;2023-02-15T04:06:32;0.20;99.90
36660;DHT22;22654;51.054;3.654;2023-02-15T04:08:58;0.10;99.90
36660;DHT22;22654;51.054;3.654;2023-02-15T04:11:42;0.20;99.90
36660;DHT22;22654;51.054;3.654;2023-02-15T04:14:08;0.50;99.90
36660;DHT22;22654;51.054;3.654;2023-02-15T04:16:52;0.70;99.90
36660;DHT22;22654;51.054;3.654;2023-02-15T04:19:18;0.80;99.90
36660;DHT22;22654;51.054;3.654;2023-02-15T04:22:02;0.90;99.90
36660;DHT22;22654;51.054;3.654;2023-02-15T04:24:46;0.80;99.90
36660;DHT22;22654;51.054;3.654;2023-02-15T04:27:30;0.60;99.90
36660;DHT22;22654;51.054;3.654;2023-02-15T04:29:56;0.40;99.90
36660;DHT22;22654;51.054;3.654;2023-02-15T04:32:22;0.40;99.90
36660;DHT22;22654;51.054;3.654;2023-02-15T04:34:47;0.60;99.90
36660;DHT22;22654;51.054;3.654;2023-02-15T04:37:13;0.70;99.90
36660;DHT22;22654;51.054;3.654;2023-02-15T04:39:39;0.80;99.90
36660;DHT22;22654;51.054;3.654;2023-02-15T04:42:04;1.20;99.90
36660;DHT22;22654;51.054;3.654;2023-02-15T04:44:33;1.30;99.90
36660;DHT22;22654;51.054;3.654;2023-02-15T04:46:59;1.10;99.90
36660;DHT22;22654;51.054;3.654;2023-02-15T04:49:25;0.80;99.90
36660;DHT22;22654;51.054;3.654;2023-02-15T04:51:50;0.60;99.90
36660;DHT22;22654;51.054;3.654;2023-02-15T04:54:16;0.50;99.90
36660;DHT22;22654;51.054;3.654;2023-02-15T04:56:42;0.30;99.90
36660;DHT22;22654;51.054;3.654;2023-02-15T04:59:11;-0.20;99.90
36660;DHT22;22654;51.054;3.654;2023-02-15T05:01:37;0.10;99.90
36660;DHT22;22654;51.054;3.654;2023-02-15T05:04:03;0.20;99.90
36660;DHT22;22654;51.054;3.654;2023-02-15T05:06:29;0.20;99.90
36660;DHT22;22654;51.054;3.654;2023-02-15T05:08:55;0.30;99.90
36660;DHT22;22654;51.054;3.654;2023-02-15T05:11:20;0.60;99.90
36660;DHT22;22654;51.054;3.654;2023-02-15T05:13:46;0.80;99.90
36660;DHT22;22654;51.054;3.654;2023-02-15T05:16:12;0.80;99.90
36660;DHT22;22654;51.054;3.654;2023-02-15T05:18:38;1.00;99.90
36660;DHT22;22654;51.054;3.654;2023-02-15T05:21:04;1.10;99.90
36660;DHT22;22654;51.054;3.654;2023-02-15T05:23:29;0.90;99.90
36660;DHT22;22654;51.054;3.654;2023-02-15T05:25:56;0.80;99.90
36660;DHT22;22654;51.054;3.654;2023-02-15T05:28:40;1.10;99.90
36660;DHT22;22654;51.054;3.654;2023-02-15T05:33:32;1.00;99.90
36660;DHT22;22654;51.054;3.654;2023-02-15T05:35:58;1.10;99.90
36660;DHT22;22654;51.054;3.654;2023-02-15T05:38:24;1.10;99.90
36660;DHT22;22654;51.054;3.654;2023-02-15T05:40:52;1.00;99.90
36660;DHT22;22654;51.054;3.654;2023-02-15T05:43:18;0.80;99.90
36660;DHT22;22654;51.054;3.654;2023-02-15T05:45:45;0.90;99.90
36660;DHT22;22654;51.054;3.654;2023-02-15T05:48:11;1.30;99.90
36660;DHT22;22654;51.054;3.654;2023-02-15T05:50:37;1.60;99.90
36660;DHT22;22654;51.054;3.654;2023-02-15T05:53:02;1.90;99.90
36660;DHT22;22654;51.054;3.654;2023-02-15T05:55:28;1.90;99.90
36660;DHT22;22654;51.054;3.654;2023-02-15T05:57:54;1.90;99.90
36660;DHT22;22654;51.054;3.654;2023-02-15T06:00:19;1.90;99.90
36660;DHT22;22654;51.054;3.654;2023-02-15T06:02:45;1.90;99.90
36660;DHT22;22654;51.054;3.654;2023-02-15T06:05:11;2.00;99.90
36660;DHT22;22654;51.054;3.654;2023-02-15T06:07:37;1.90;99.90
36660;DHT22;22654;51.054;3.654;2023-02-15T06:10:03;1.60;99.90
36660;DHT22;22654;51.054;3.654;2023-02-15T06:12:29;1.60;99.90
36660;DHT22;22654;51.054;3.654;2023-02-15T06:14:54;1.50;99.90
36660;DHT22;22654;51.054;3.654;2023-02-15T06:17:20;1.40;99.90
36660;DHT22;22654;51.054;3.654;2023-02-15T06:19:47;1.40;99.90
36660;DHT22;22654;51.054;3.654;2023-02-15T06:22:14;1.40;99.90
36660;DHT22;22654;51.054;3.654;2023-02-15T06:24:39;1.40;99.90
36660;DHT22;22654;51.054;3.654;2023-02-15T06:27:08;1.40;99.90
36660;DHT22;22654;51.054;3.654;2023-02-15T06:29:34;1.30;99.90
36660;DHT22;22654;51.054;3.654;2023-02-15T06:32:00;1.20;99.90
36660;DHT22;22654;51.054;3.654;2023-02-15T06:34:26;1.30;99.90
36660;DHT22;22654;51.054;3.654;2023-02-15T06:36:52;1.30;99.90
36660;DHT22;22654;51.054;3.654;2023-02-15T06:39:18;1.40;99.90
36660;DHT22;22654;51.054;3.654;2023-02-15T06:41:44;1.70;99.90
36660;DHT22;22654;51.054;3.654;2023-02-15T06:44:10;1.90;99.90
36660;DHT22;22654;51.054;3.654;2023-02-15T06:46:36;2.20;99.90
36660;DHT22;22654;51.054;3.654;2023-02-15T06:49:01;2.30;99.90
36660;DHT22;22654;51.054;3.654;2023-02-15T06:51:27;2.30;99.90
36660;DHT22;22654;51.054;3.654;2023-02-15T06:53:53;2.00;99.90
36660;DHT22;22654;51.054;3.654;2023-02-15T06:56:19;1.80;99.90
36660;DHT22;22654;51.054;3.654;2023-02-15T06:58:44;1.80;99.90
36660;DHT22;22654;51.054;3.654;2023-02-15T07:01:15;1.80;99.90
36660;DHT22;22654;51.054;3.654;2023-02-15T07:03:41;1.70;99.90
36660;DHT22;22654;51.054;3.654;2023-02-15T07:06:07;1.70;99.90
36660;DHT22;22654;51.054;3.654;2023-02-15T07:08:35;1.60;99.90
36660;DHT22;22654;51.054;3.654;2023-02-15T07:11:01;1.60;99.90
36660;DHT22;22654;51.054;3.654;2023-02-15T07:13:45;1.60;99.90
36660;DHT22;22654;51.054;3.654;2023-02-15T07:16:11;1.60;99.90
36660;DHT22;22654;51.054;3.654;2023-02-15T07:18:37;1.60;99.90
36660;DHT22;22654;51.054;3.654;2023-02-15T07:21:03;1.80;99.90
36660;DHT22;22654;51.054;3.654;2023-02-15T07:23:31;1.80;99.90
36660;DHT22;22654;51.054;3.654;2023-02-15T07:25:58;1.90;99.90
36660;DHT22;22654;51.054;3.654;2023-02-15T07:28:24;2.00;99.90
36660;DHT22;22654;51.054;3.654;2023-02-15T07:30:49;1.90;99.90
36660;DHT22;22654;51.054;3.654;2023-02-15T07:33:15;1.80;99.90
36660;DHT22;22654;51.054;3.654;2023-02-15T07:35:50;1.80;99.90
36660;DHT22;22654;51.054;3.654;2023-02-15T07:38:16;1.70;99.90
36660;DHT22;22654;51.054;3.654;2023-02-15T07:40:42;1.70;99.90
36660;DHT22;22654;51.054;3.654;2023-02-15T07:43:08;1.70;99.90
36660;DHT22;22654;51.054;3.654;2023-02-15T07:45:34;1.80;99.90
36660;DHT22;22654;51.054;3.654;2023-02-15T07:48:00;1.80;99.90
36660;DHT22;22654;51.054;3.654;2023-02-15T07:50:26;1.90;99.90
36660;DHT22;22654;51.054;3.654;2023-02-15T07:52:52;2.00;99.90
36660;DHT22;22654;51.054;3.654;2023-02-15T07:55:18;2.10;99.90
36660;DHT22;22654;51.054;3.654;2023-02-15T07:57:44;2.10;99.90
36660;DHT22;22654;51.054;3.654;2023-02-15T08:00:11;2.60;99.90
36660;DHT22;22654;51.054;3.654;2023-02-15T08:02:38;3.20;99.90
36660;DHT22;22654;51.054;3.654;2023-02-15T08:05:04;3.50;99.90
36660;DHT22;22654;51.054;3.654;2023-02-15T08:07:30;3.70;99.90
36660;DHT22;22654;51.054;3.654;2023-02-15T08:09:56;3.90;99.90
36660;DHT22;22654;51.054;3.654;2023-02-15T08:12:22;3.90;99.90
36660;DHT22;22654;51.054;3.654;2023-02-15T08:14:47;4.20;99.90
36660;DHT22;22654;51.054;3.654;2023-02-15T08:17:13;4.30;99.90
36660;DHT22;22654;51.054;3.654;2023-02-15T08:19:39;4.30;99.90
36660;DHT22;22654;51.054;3.654;2023-02-15T08:22:05;4.40;99.90
36660;DHT22;22654;51.054;3.654;2023-02-15T08:24:35;4.70;99.90
36660;DHT22;22654;51.054;3.654;2023-02-15T08:27:05;4.70;99.90
36660;DHT22;22654;51.054;3.654;2023-02-15T08:29:35;4.60;99.90
36660;DHT22;22654;51.054;3.654;2023-02-15T08:32:08;4.40;99.90
36660;DHT22;22654;51.054;3.654;2023-02-15T08:34:35;4.40;99.90
36660;DHT22;22654;51.054;3.654;2023-02-15T08:37:01;4.50;99.90
36660;DHT22;22654;51.054;3.654;2023-02-15T08:39:27;4.90;99.90
36660;DHT22;22654;51.054;3.654;2023-02-15T08:41:54;5.00;99.90
36660;DHT22;22654;51.054;3.654;2023-02-15T08:44:20;5.10;99.90
36660;DHT22;22654;51.054;3.654;2023-02-15T08:46:46;5.10;99.90
36660;DHT22;22654;51.054;3.654;2023-02-15T08:49:14;5.20;99.90
36660;DHT22;22654;51.054;3.654;2023-02-15T08:51:40;5.50;99.90
36660;DHT22;22654;51.054;3.654;2023-02-15T08:54:12;5.70;99.90
36660;DHT22;22654;51.054;3.654;2023-02-15T08:56:39;5.80;99.90
36660;DHT22;22654;51.054;3.654;2023-02-15T08:59:05;6.00;99.90
36660;DHT22;22654;51.054;3.654;2023-02-15T09:01:32;6.10;99.90
36660;DHT22;22654;51.054;3.654;2023-02-15T09:03:59;6.40;99.90
36660;DHT22;22654;51.054;3.654;2023-02-15T09:06:25;6.60;99.90
36660;DHT22;22654;51.054;3.654;2023-02-15T09:08:51;6.80;99.90
36660;DHT22;22654;51.054;3.654;2023-02-15T09:11:18;7.20;99.90
36660;DHT22;22654;51.054;3.654;2023-02-15T09:16:16;7.30;99.90
36660;DHT22;22654;51.054;3.654;2023-02-15T09:18:45;7.30;99.90
36660;DHT22;22654;51.054;3.654;2023-02-15T09:21:20;7.50;99.90
36660;DHT22;22654;51.054;3.654;2023-02-15T09:23:47;7.70;99.90
36660;DHT22;22654;51.054;3.654;2023-02-15T09:26:23;7.70;99.90
36660;DHT22;22654;51.054;3.654;2023-02-15T09:28:53;7.90;99.90
36660;DHT22;22654;51.054;3.654;2023-02-15T09:31:22;8.10;99.90
36660;DHT22;22654;51.054;3.654;2023-02-15T09:34:01;8.10;99.90
36660;DHT22;22654;51.054;3.654;2023-02-15T09:36:34;8.30;99.90
36660;DHT22;22654;51.054;3.654;2023-02-15T09:39:33;8.40;99.90
36660;DHT22;22654;51.054;3.654;2023-02-15T09:52:33;8.90;99.90
36660;DHT22;22654;51.054;3.654;2023-02-15T09:57:51;9.00;99.90
36660;DHT22;22654;51.054;3.654;2023-02-15T10:06:17;9.40;99.90
36660;DHT22;22654;51.054;3.654;2023-02-15T10:08:48;9.40;99.90
36660;DHT22;22654;51.054;3.654;2023-02-15T10:11:25;9.60;99.90
36660;DHT22;22654;51.054;3.654;2023-02-15T10:24:35;9.80;99.90
36660;DHT22;22654;51.054;3.654;2023-02-15T10:27:02;9.90;99.90
36660;DHT22;22654;51.054;3.654;2023-02-15T10:29:35;10.00;99.90
36660;DHT22;22654;51.054;3.654;2023-02-15T10:32:15;10.10;99.90
36660;DHT22;22654;51.054;3.654;2023-02-15T10:37:30;10.30;99.90
36660;DHT22;22654;51.054;3.654;2023-02-15T10:42:44;10.70;99.90
36660;DHT22;22654;51.054;3.654;2023-02-15T10:47:46;11.00;99.90
36660;DHT22;22654;51.054;3.654;2023-02-15T10:50:17;10.90;99.90
36660;DHT22;22654;51.054;3.654;2023-02-15T11:00:30;10.90;99.90
36660;DHT22;22654;51.054;3.654;2023-02-15T11:03:12;11.00;99.90
36660;DHT22;22654;51.054;3.654;2023-02-15T11:06:00;11.00;99.90
36660;DHT22;22654;51.054;3.654;2023-02-15T11:08:27;10.90;99.90
36660;DHT22;22654;51.054;3.654;2023-02-15T11:10:56;10.70;99.90
36660;DHT22;22654;51.054;3.654;2023-02-15T11:13:24;10.60;99.90
36660;DHT22;22654;51.054;3.654;2023-02-15T11:15:53;10.60;99.90
36660;DHT22;22654;51.054;3.654;2023-02-15T11:18:25;10.50;99.90
36660;DHT22;22654;51.054;3.654;2023-02-15T11:21:01;10.60;99.90
36660;DHT22;22654;51.054;3.654;2023-02-15T11:23:27;10.70;99.90
36660;DHT22;22654;51.054;3.654;2023-02-15T11:26:00;10.80;99.90
36660;DHT22;22654;51.054;3.654;2023-02-15T11:28:42;11.10;99.90
36660;DHT22;22654;51.054;3.654;2023-02-15T11:31:19;11.30;99.90
36660;DHT22;22654;51.054;3.654;2023-02-15T11:33:47;11.30;99.90
36660;DHT22;22654;51.054;3.654;2023-02-15T11:38:42;11.70;99.90
36660;DHT22;22654;51.054;3.654;2023-02-15T11:41:17;11.80;99.90
36660;DHT22;22654;51.054;3.654;2023-02-15T11:43:49;11.90;99.90
36660;DHT22;22654;51.054;3.654;2023-02-15T11:46:16;11.90;99.90
36660;DHT22;22654;51.054;3.654;2023-02-15T11:48:44;11.90;99.90
36660;DHT22;22654;51.054;3.654;2023-02-15T11:51:20;11.90;99.90
36660;DHT22;22654;51.054;3.654;2023-02-15T11:53:46;12.00;99.90
36660;DHT22;22654;51.054;3.654;2023-02-15T11:56:16;11.90;99.90
36660;DHT22;22654;51.054;3.654;2023-02-15T12:03:59;12.50;99.90
36660;DHT22;22654;51.054;3.654;2023-02-15T12:06:28;12.80;99.90
36660;DHT22;22654;51.054;3.654;2023-02-15T12:11:29;13.50;99.90
36660;DHT22;22654;51.054;3.654;2023-02-15T12:13:56;13.50;99.90
36660;DHT22;22654;51.054;3.654;2023-02-15T12:16:22;13.70;99.90
36660;DHT22;22654;51.054;3.654;2023-02-15T12:18:48;13.90;99.90
36660;DHT22;22654;51.054;3.654;2023-02-15T12:21:15;14.00;99.90
36660;DHT22;22654;51.054;3.654;2023-02-15T12:23:54;14.10;99.90
36660;DHT22;22654;51.054;3.654;2023-02-15T12:26:28;14.40;99.90
36660;DHT22;22654;51.054;3.654;2023-02-15T12:28:57;14.50;99.90
36660;DHT22;22654;51.054;3.654;2023-02-15T12:31:26;14.70;99.90
36660;DHT22;22654;51.054;3.654;2023-02-15T12:33:53;14.80;99.90
36660;DHT22;22654;51.054;3.654;2023-02-15T12:36:21;15.00;99.90
36660;DHT22;22654;51.054;3.654;2023-02-15T12:41:32;15.10;99.90
36660;DHT22;22654;51.054;3.654;2023-02-15T12:44:32;14.80;99.90
36660;DHT22;22654;51.054;3.654;2023-02-15T12:49:21;14.50;99.90
36660;DHT22;22654;51.054;3.654;2023-02-15T12:51:54;14.50;99.90
36660;DHT22;22654;51.054;3.654;2023-02-15T12:56:52;14.50;99.90
36660;DHT22;22654;51.054;3.654;2023-02-15T12:59:18;14.50;99.90
36660;DHT22;22654;51.054;3.654;2023-02-15T13:01:46;14.50;99.90
36660;DHT22;22654;51.054;3.654;2023-02-15T13:04:21;14.60;99.90
36660;DHT22;22654;51.054;3.654;2023-02-15T13:06:48;14.50;99.90
36660;DHT22;22654;51.054;3.654;2023-02-15T13:09:15;14.70;99.90
36660;DHT22;22654;51.054;3.654;2023-02-15T13:11:43;14.70;99.90
36660;DHT22;22654;51.054;3.654;2023-02-15T13:14:19;14.70;99.90
36660;DHT22;22654;51.054;3.654;2023-02-15T13:16:48;14.60;99.90
36660;DHT22;22654;51.054;3.654;2023-02-15T13:19:15;14.40;99.90
36660;DHT22;22654;51.054;3.654;2023-02-15T13:21:46;14.30;99.90
36660;DHT22;22654;51.054;3.654;2023-02-15T13:24:20;14.40;99.90
36660;DHT22;22654;51.054;3.654;2023-02-15T13:26:47;14.20;99.90
36660;DHT22;22654;51.054;3.654;2023-02-15T13:31:45;14.20;99.90
36660;DHT22;22654;51.054;3.654;2023-02-15T13:36:57;14.30;99.90
36660;DHT22;22654;51.054;3.654;2023-02-15T13:39:29;14.20;99.90
36660;DHT22;22654;51.054;3.654;2023-02-15T13:42:09;14.20;99.90
36660;DHT22;22654;51.054;3.654;2023-02-15T13:44:54;14.20;99.90
36660;DHT22;22654;51.054;3.654;2023-02-15T13:52:27;14.30;99.90
36660;DHT22;22654;51.054;3.654;2023-02-15T14:10:29;14.50;99.90
36660;DHT22;22654;51.054;3.654;2023-02-15T14:18:24;14.70;99.90
36660;DHT22;22654;51.054;3.654;2023-02-15T14:31:06;14.80;99.90
36660;DHT22;22654;51.054;3.654;2023-02-15T14:33:40;14.60;99.90
36660;DHT22;22654;51.054;3.654;2023-02-15T14:36:08;14.50;99.90
36660;DHT22;22654;51.054;3.654;2023-02-15T14:39:22;14.50;99.90
36660;DHT22;22654;51.054;3.654;2023-02-15T14:44:23;14.30;99.90
36660;DHT22;22654;51.054;3.654;2023-02-15T14:46:58;14.20;99.90
36660;DHT22;22654;51.054;3.654;2023-02-15T14:49:33;14.20;99.90
36660;DHT22;22654;51.054;3.654;2023-02-15T14:52:07;14.20;99.90
36660;DHT22;22654;51.054;3.654;2023-02-15T14:59:25;14.20;99.90
36660;DHT22;22654;51.054;3.654;2023-02-15T15:04:28;14.10;99.90
36660;DHT22;22654;51.054;3.654;2023-02-15T15:09:40;13.60;99.90
36660;DHT22;22654;51.054;3.654;2023-02-15T15:12:35;13.60;99.90
36660;DHT22;22654;51.054;3.654;2023-02-15T15:15:01;13.50;99.90
36660;DHT22;22654;51.054;3.654;2023-02-15T15:20:13;13.30;99.90
36660;DHT22;22654;51.054;3.654;2023-02-15T15:22:40;13.20;99.90
36660;DHT22;22654;51.054;3.654;2023-02-15T15:25:11;13.20;99.90
36660;DHT22;22654;51.054;3.654;2023-02-15T15:27:47;13.30;99.90
36660;DHT22;22654;51.054;3.654;2023-02-15T15:40:25;13.10;99.90
36660;DHT22;22654;51.054;3.654;2023-02-15T15:50:40;12.60;99.90
36660;DHT22;22654;51.054;3.654;2023-02-15T15:53:06;12.60;99.90
36660;DHT22;22654;51.054;3.654;2023-02-15T15:55:38;12.60;99.90
36660;DHT22;22654;51.054;3.654;2023-02-15T15:58:05;12.60;99.90
36660;DHT22;22654;51.054;3.654;2023-02-15T16:00:36;12.50;99.90
36660;DHT22;22654;51.054;3.654;2023-02-15T16:03:03;12.30;99.90
36660;DHT22;22654;51.054;3.654;2023-02-15T16:05:36;12.40;99.90
36660;DHT22;22654;51.054;3.654;2023-02-15T16:08:02;12.30;99.90
36660;DHT22;22654;51.054;3.654;2023-02-15T16:10:28;12.10;99.90
36660;DHT22;22654;51.054;3.654;2023-02-15T16:12:55;12.10;99.90
36660;DHT22;22654;51.054;3.654;2023-02-15T16:15:43;12.20;99.90
36660;DHT22;22654;51.054;3.654;2023-02-15T16:18:10;12.10;99.90
36660;DHT22;22654;51.054;3.654;2023-02-15T16:20:36;12.00;99.90
36660;DHT22;22654;51.054;3.654;2023-02-15T16:28:22;11.80;99.90
36660;DHT22;22654;51.054;3.654;2023-02-15T16:30:55;11.80;99.90
36660;DHT22;22654;51.054;3.654;2023-02-15T16:33:33;11.80;99.90
36660;DHT22;22654;51.054;3.654;2023-02-15T16:35:59;11.70;99.90
36660;DHT22;22654;51.054;3.654;2023-02-15T16:41:09;11.60;99.90
36660;DHT22;22654;51.054;3.654;2023-02-15T16:43:36;11.50;99.90
36660;DHT22;22654;51.054;3.654;2023-02-15T16:46:03;11.50;99.90
36660;DHT22;22654;51.054;3.654;2023-02-15T16:48:30;11.50;99.90
36660;DHT22;22654;51.054;3.654;2023-02-15T16:50:56;11.50;99.90
36660;DHT22;22654;51.054;3.654;2023-02-15T16:53:24;11.50;99.90
36660;DHT22;22654;51.054;3.654;2023-02-15T16:55:51;11.40;99.90
36660;DHT22;22654;51.054;3.654;2023-02-15T16:58:19;11.20;99.90
36660;DHT22;22654;51.054;3.654;2023-02-15T17:00:46;11.10;99.90
36660;DHT22;22654;51.054;3.654;2023-02-15T17:05:42;10.90;99.90
36660;DHT22;22654;51.054;3.654;2023-02-15T17:08:19;10.90;99.90
36660;DHT22;22654;51.054;3.654;2023-02-15T17:11:11;10.90;99.90
36660;DHT22;22654;51.054;3.654;2023-02-15T17:13:35;10.70;99.90
36660;DHT22;22654;51.054;3.654;2023-02-15T17:18:30;10.50;99.90
36660;DHT22;22654;51.054;3.654;2023-02-15T17:21:40;10.30;99.90
36660;DHT22;22654;51.054;3.654;2023-02-15T17:23:46;10.20;99.90
36660;DHT22;22654;51.054;3.654;2023-02-15T17:26:13;10.20;99.90
36660;DHT22;22654;51.054;3.654;2023-02-15T17:29:00;10.10;99.90
36660;DHT22;22654;51.054;3.654;2023-02-15T17:31:30;10.10;99.90
36660;DHT22;22654;51.054;3.654;2023-02-15T17:33:58;10.00;99.90
36660;DHT22;22654;51.054;3.654;2023-02-15T17:36:25;9.90;99.90
36660;DHT22;22654;51.054;3.654;2023-02-15T17:41:25;9.70;99.90
36660;DHT22;22654;51.054;3.654;2023-02-15T17:43:51;9.60;99.90
36660;DHT22;22654;51.054;3.654;2023-02-15T17:46:18;9.40;99.90
36660;DHT22;22654;51.054;3.654;2023-02-15T17:48:47;9.40;99.90
36660;DHT22;22654;51.054;3.654;2023-02-15T17:51:14;9.40;99.90
36660;DHT22;22654;51.054;3.654;2023-02-15T17:53:40;9.20;99.90
36660;DHT22;22654;51.054;3.654;2023-02-15T17:56:26;8.90;99.90
36660;DHT22;22654;51.054;3.654;2023-02-15T17:58:52;8.80;99.90
36660;DHT22;22654;51.054;3.654;2023-02-15T18:01:18;8.90;99.90
36660;DHT22;22654;51.054;3.654;2023-02-15T18:04:03;8.90;99.90
36660;DHT22;22654;51.054;3.654;2023-02-15T18:06:48;9.00;99.90
36660;DHT22;22654;51.054;3.654;2023-02-15T18:09:33;9.00;99.90
36660;DHT22;22654;51.054;3.654;2023-02-15T18:12:21;9.00;99.90
36660;DHT22;22654;51.054;3.654;2023-02-15T18:14:50;8.70;99.90
36660;DHT22;22654;51.054;3.654;2023-02-15T18:17:16;8.60;99.90
36660;DHT22;22654;51.054;3.654;2023-02-15T18:19:43;8.60;99.90
36660;DHT22;22654;51.054;3.654;2023-02-15T18:22:10;8.70;99.90
36660;DHT22;22654;51.054;3.654;2023-02-15T18:24:36;8.80;99.90
36660;DHT22;22654;51.054;3.654;2023-02-15T18:27:03;8.80;99.90
36660;DHT22;22654;51.054;3.654;2023-02-15T18:29:29;8.80;99.90
36660;DHT22;22654;51.054;3.654;2023-02-15T18:31:55;8.70;99.90
36660;DHT22;22654;51.054;3.654;2023-02-15T18:34:31;8.80;99.90
36660;DHT22;22654;51.054;3.654;2023-02-15T18:36:58;8.80;99.90
36660;DHT22;22654;51.054;3.654;2023-02-15T18:39:34;8.70;99.90
36660;DHT22;22654;51.054;3.654;2023-02-15T18:42:00;8.60;99.90
36660;DHT22;22654;51.054;3.654;2023-02-15T18:44:26;8.50;99.90
36660;DHT22;22654;51.054;3.654;2023-02-15T18:46:52;8.70;99.90
36660;DHT22;22654;51.054;3.654;2023-02-15T18:49:18;8.50;99.90
36660;DHT22;22654;51.054;3.654;2023-02-15T18:51:43;8.60;99.90
36660;DHT22;22654;51.054;3.654;2023-02-15T18:54:14;8.50;99.90
36660;DHT22;22654;51.054;3.654;2023-02-15T18:56:41;8.60;99.90
36660;DHT22;22654;51.054;3.654;2023-02-15T18:59:11;8.50;99.90
36660;DHT22;22654;51.054;3.654;2023-02-15T19:01:38;8.40;99.90